Airfield :
LOGIN :

Register | Disclaimer

   EN    FR    IT 

 










Legend :    VFR   Marginal VFR   IFR   Intensive IFR   Very Intensive IFR
Visi :
Ceiling :
>= 8 km
>= 3000ft
5 to 8 km
1000 to 3000 ft
1500m to 5 km
500 to 1000 ft
800 to 1500m
200 to 500 ft
< 800m
< 200 ft
Symbols :   Thunderstorms  Fog  Heavy snow  Heavy precipitations  Wind > 20 kt
SIGMETs :     Misc.  Thunderstorms  Icing  Turbulence  Mountain Waves  Volcanic Ashes






- Airport Elevation : 10 ft
- IATA code : AAL


EKYT - Aalborg

CURRENT METAR :
  • 221901Z AUTO 26022G34KT 9999 FEW031/// SCT046/// 05/01 Q0996

EXPIRED METARs :
  • 221850Z AUTO 27023G34KT 9999 FEW039/// 06/01 Q0996
  • 221843Z AUTO 26023G34KT 9999 FEW036/// 05/01 Q0996
  • 221831Z AUTO 26023G34KT 9999 FEW036/// SCT050/// 05/01 Q0996
  • 221820Z AUTO 26025KT 9999 FEW036/// SCT050/// 05/01 Q0996
  • 221804Z AUTO 26023G38KT 9999 FEW036/// 05/01 Q0996
  • 221750Z AUTO 26026KT 9999 FEW037/// 05/01 Q0995
  • 221720Z 26023G33KT 8000 -SHRA FEW034CB 05/02 Q0995
  • 221716Z 27022KT 8000 SHRAGS FEW025CB 05/02 Q0995
  • 221650Z AUTO 26026G36KT 9999 -SHRA FEW028/// SCT060/// BKN150/// 05/01 Q0995
  • 221632Z AUTO 26023G36KT 9999 -SHRA FEW033/// SCT140/// BKN180/// 06/01 Q0994
  • 221604Z AUTO 26025G36KT 9999 FEW034/// SCT046/// 06/02 Q0994

TAF TAF EKYT
Valid from the 22 at 18:00 until the 23 at 18:00 UTC


221721Z 2218/2318 27018G32KT 9999 SCT020
TEMPO 2218/2303 27025G42KT 4000 SHRAGS SCT020CB
TEMPO 2303/2318 26020KT -SHRA FEW020CB



MET'MAP, your aeronautical weather chart ! - Copyright ORBIFLY December 2007 - Disclaimer

ORBIFLY MET'MAP TEAM :

Programming & Development : Alexandra Zaïnal
Concept & original design : Baudouin d'Aumeries
Assistance for programming : Marc-Olivier Méhu
Technical & hardware support : Manuel Goepfert

Contact : metmap@orbifly.com




SOURCES & CREDITS :

   NOAA